Harrisburg, OR (97446)

8:05 AM PDT on April 21, 2015 (GMT -0700)
Valley Hay Co. | | Change Station
CLOSE
Current Station
Personal Weather Station
Location: Harrisburg, OR
Elevation: 302 ft
Nearby Weather Stations

Elev 302 ft 44.32 °N, 123.13 °W | Updated 14 minutes ago

Partly Cloudy
Partly Cloudy
48.6 °F
Feels Like 49 °F
N
0.0
Wind Variable Wind from SSE

Today
High -- | Low -- °F
--% Chance of Precip.
Yesterday
High -- | Low -- °F
Precip. -- in
6:19 AM 8:04 PM
Waxing Crescent, 11% visible
Pressure 29.97 in
Visibility 10.0 miles
Clouds Overcast 25000 ft
Windchill 49 °F
Dew Point 47 °F
Humidity 94%
Rainfall 0.00 in
Snow Depth Not available.
UV 0 out of 12
Pollen 9.40 out of 12
Air Quality Not available.
Flu Activity Regional
METAR KEUG 211454Z 20004KT 10SM OVC250 09/07 A2997 RMK AO2 SLP148 T00940072 53020

More Conditions Fewer Conditions

Pressure 29.97 in
Visibility 10.0 miles
Clouds Overcast 25000 ft
Windchill 49 °F
Dew Point 47 °F
Humidity 94%
Rainfall 0.00 in
Snow Depth Not available.
UV 0 out of 12
Pollen 9.40 out of 12
Air Quality Not available.
Flu Activity Regional
METAR KEUG 211454Z 20004KT 10SM OVC250 09/07 A2997 RMK AO2 SLP148 T00940072 53020

More Conditions Fewer Conditions

10-Day Weather Forecast

Almanac

Astronomy

Apr. 21, 2015 Rise Set
Actual Time
Civil Twilight
Nautical Twilight
Astronomical Twilight
Moon
Length of Visible Light
Length of Day
Tomorrow will be .
, % of the Moon is Illuminated

Today's Extremes

State Highs State Lows

Community

WunderPhotos

Upload Photos

1,815,418 photos uploaded!

WunderBlogs® & News

Nearby

Air Quality

  Air Quality AQ Index Pollutant
Not available.

Snow Depth

Station Depth Elevation

Earthquake Activity

City Distance Mag. Time & Date
Minimum magnitude displayed is 2.5.

Coastal Water Temperatures

Place Temperature

Stations

Nearby Weather Stations

Station Location Temp. Windchill Dew Point Humidity Wind Precip. Elev Updated Type